Time;durP1;ratioP1;P1;durP2;ratioP2;P2;SDS_P1;SDS_P2;PMS_P1;PMS_P2;Temp;Humidity;BMP_temperature;BMP_pressure;BME280_temperature;BME280_humidity;BME280_pressure;Samples;Min_cycle;Max_cycle;Signal;HPM_P1;HPM_P2
2023/11/30 00:02:17;;;;;;;7.82;5.28;;;;;;;5.07;66.64;95855.28;4921308;28;20354;-82
2023/11/30 00:04:42;;;;;;;9.35;5.82;;;;;;;5.03;66.46;95841.28;4926453;28;20290;-82
2023/11/30 00:07:11;;;;;;;8.80;5.03;;;;;;;5.10;66.86;95848.06;4921857;28;20302;-81
2023/11/30 00:09:37;;;;;;;7.82;4.72;;;;;;;5.11;66.36;95839.31;4937726;28;20568;-81
2023/11/30 00:12:03;;;;;;;8.05;5.15;;;;;;;5.04;66.60;95824.78;4941868;28;20196;-82
2023/11/30 00:14:29;;;;;;;11.27;5.65;;;;;;;5.11;66.30;95831.59;4923942;28;20269;-82
2023/11/30 00:16:54;;;;;;;9.25;5.25;;;;;;;5.10;66.22;95827.44;4922393;28;20171;-81
2023/11/30 00:19:19;;;;;;;9.10;5.05;;;;;;;5.03;66.52;95807.75;4928150;28;20603;-81
2023/11/30 00:21:45;;;;;;;8.98;5.32;;;;;;;5.17;66.24;95825.44;4925256;28;20278;-82
2023/11/30 00:24:10;;;;;;;9.70;5.28;;;;;;;5.15;66.30;95817.94;4942982;28;20285;-82
2023/11/30 00:26:35;;;;;;;8.43;5.32;;;;;;;5.06;66.17;95804.69;4943453;28;20165;-81
2023/11/30 00:29:01;;;;;;;8.02;5.10;;;;;;;5.08;66.02;95812.19;4926128;28;20642;-82
2023/11/30 00:31:26;;;;;;;9.35;4.28;;;;;;;5.06;65.39;95802.13;4910969;28;20740;-82
2023/11/30 00:33:52;;;;;;;7.38;4.72;;;;;;;5.14;65.74;95806.06;4905906;28;20278;-81
2023/11/30 00:36:17;;;;;;;6.55;4.53;;;;;;;5.12;65.61;95799.59;4926234;28;20256;-81
2023/11/30 00:38:42;;;;;;;7.25;4.40;;;;;;;5.01;65.12;95784.00;4925371;28;20191;-81
2023/11/30 00:41:13;;;;;;;6.30;3.78;;;;;;;5.21;65.53;95805.88;4909151;28;20157;-80
2023/11/30 00:43:39;;;;;;;8.02;4.50;;;;;;;5.09;65.87;95802.66;4909353;28;20592;-81
2023/11/30 00:46:04;;;;;;;8.50;4.22;;;;;;;5.06;65.79;95804.69;4944181;28;20165;-80
2023/11/30 00:48:31;;;;;;;8.73;5.10;;;;;;;5.09;66.36;95807.81;4917324;28;20293;-81
2023/11/30 00:50:56;;;;;;;13.93;8.25;;;;;;;5.06;65.88;95802.13;4915568;28;20243;-81
2023/11/30 00:53:21;;;;;;;11.70;6.88;;;;;;;5.08;65.90;95807.03;4937802;28;20275;-81
2023/11/30 00:55:47;;;;;;;10.80;6.85;;;;;;;5.00;65.92;95795.38;4905800;28;20348;-80
2023/11/30 00:58:12;;;;;;;8.98;5.57;;;;;;;4.99;66.03;95793.78;4920821;28;20826;-80
2023/11/30 01:00:37;;;;;;;7.50;4.70;;;;;;;4.96;65.97;95799.44;4934500;28;20659;-80
2023/11/30 01:03:03;;;;;;;6.47;4.35;;;;;;;4.96;66.37;95799.44;4901882;28;21868;-80
2023/11/30 01:05:28;;;;;;;7.35;4.13;;;;;;;4.93;65.95;95792.16;4942761;28;20243;-80
2023/11/30 01:07:53;;;;;;;6.22;4.07;;;;;;;4.95;66.27;95803.03;4943820;28;20317;-80
2023/11/30 01:10:19;;;;;;;7.82;4.30;;;;;;;4.94;66.52;95803.28;4926587;28;20206;-80
2023/11/30 01:12:45;;;;;;;6.70;4.22;;;;;;;4.96;66.23;95799.44;4924993;28;20353;-80
2023/11/30 01:15:10;;;;;;;6.78;4.32;;;;;;;4.94;66.22;95791.16;4924195;28;20234;-80
2023/11/30 01:17:35;;;;;;;6.55;4.00;;;;;;;4.97;66.20;95782.94;4942890;28;20215;-80
2023/11/30 01:20:01;;;;;;;4.93;3.47;;;;;;;4.96;66.15;95783.94;4940089;28;20386;-80
2023/11/30 01:22:26;;;;;;;5.93;3.58;;;;;;;4.95;65.89;95776.44;4939784;28;20723;-80
2023/11/30 01:24:51;;;;;;;6.22;4.05;;;;;;;4.91;66.25;95775.41;4926207;28;20292;-80
2023/11/30 01:27:17;;;;;;;5.60;3.30;;;;;;;4.91;65.97;95775.41;4909283;28;20203;-80
2023/11/30 01:29:42;;;;;;;6.95;4.10;;;;;;;4.84;65.81;95766.03;4904329;28;20531;-80
2023/11/30 01:32:07;;;;;;;4.88;2.95;;;;;;;4.83;66.20;95768.84;4921760;28;20291;-80
2023/11/30 01:34:33;;;;;;;5.07;3.22;;;;;;;4.79;66.35;95767.78;4908131;28;20236;-80
2023/11/30 01:36:58;;;;;;;5.22;3.35;;;;;;;4.80;66.13;95774.50;4940382;28;20176;-79
2023/11/30 01:39:23;;;;;;;6.18;3.70;;;;;;;4.77;66.03;95764.69;4908250;28;20199;-79
2023/11/30 01:41:48;;;;;;;5.13;3.45;;;;;;;4.77;66.35;95765.44;4931809;28;20191;-79
2023/11/30 01:44:14;;;;;;;5.22;3.33;;;;;;;4.86;66.25;95778.69;4917051;28;20280;-79
2023/11/30 01:46:39;;;;;;;5.93;3.70;;;;;;;4.86;66.03;95783.84;4923636;28;20469;-79
2023/11/30 01:49:06;;;;;;;5.43;3.28;;;;;;;4.87;66.35;95782.84;4924118;28;20635;-79
2023/11/30 01:51:34;;;;;;;5.57;3.25;;;;;;;4.94;66.33;95787.81;4944891;28;20558;-79
2023/11/30 01:53:59;;;;;;;6.32;3.47;;;;;;;4.90;66.66;95773.81;4927819;28;20216;-80
2023/11/30 01:56:27;;;;;;;5.38;2.90;;;;;;;4.92;66.11;95757.09;4924106;28;20955;-79
2023/11/30 01:58:53;;;;;;;5.18;3.40;;;;;;;4.93;66.18;95763.78;4942426;28;20486;-79
2023/11/30 02:01:18;;;;;;;5.35;3.60;;;;;;;5.03;66.20;95761.31;4944437;28;20340;-79
2023/11/30 02:03:44;;;;;;;6.07;3.67;;;;;;;5.10;65.69;95761.13;4941857;28;20206;-79
2023/11/30 02:06:09;;;;;;;4.63;3.20;;;;;;;5.00;66.25;95755.88;4911856;28;20126;-79
2023/11/30 02:08:35;;;;;;;6.35;3.78;;;;;;;5.04;66.00;95755.16;4942719;28;20230;-79
2023/11/30 02:11:00;;;;;;;4.15;2.97;;;;;;;5.00;66.48;95738.63;4922673;28;20208;-79
2023/11/30 02:13:26;;;;;;;5.47;3.53;;;;;;;5.13;66.27;95741.81;4945021;28;20580;-79
2023/11/30 02:15:51;;;;;;;5.47;3.53;;;;;;;5.11;66.15;95739.47;4925195;28;20220;-79
2023/11/30 02:18:17;;;;;;;6.35;4.07;;;;;;;5.10;66.30;95745.66;4938141;28;20169;-79
2023/11/30 02:20:42;;;;;;;5.97;3.28;;;;;;;5.07;66.24;95739.19;4928364;28;20241;-79
2023/11/30 02:23:07;;;;;;;5.07;3.25;;;;;;;5.11;66.28;95747.22;4926741;28;20233;-79
2023/11/30 02:25:33;;;;;;;6.35;3.30;;;;;;;5.07;66.28;95744.34;4920836;28;20837;-79
2023/11/30 02:27:58;;;;;;;5.25;2.78;;;;;;;5.11;66.37;95749.03;4904760;28;20334;-79
2023/11/30 02:30:25;;;;;;;4.63;3.22;;;;;;;5.12;66.58;95748.75;4905568;28;20208;-79
2023/11/30 02:32:50;;;;;;;5.63;2.80;;;;;;;5.14;66.27;95743.34;4926345;28;20187;-80
2023/11/30 02:35:15;;;;;;;5.93;3.13;;;;;;;5.17;66.68;95742.88;4928130;28;20462;-79
2023/11/30 02:37:41;;;;;;;5.22;3.40;;;;;;;5.15;66.69;95737.94;4926902;28;20227;-79
2023/11/30 02:40:07;;;;;;;3.63;2.95;;;;;;;5.15;66.85;95725.06;4923445;28;20256;-80
2023/11/30 02:42:32;;;;;;;5.28;3.08;;;;;;;5.19;66.55;95730.50;4955131;28;20208;-80
2023/11/30 02:44:57;;;;;;;3.97;2.50;;;;;;;5.18;66.38;95723.81;4918438;28;20200;-79
2023/11/30 02:47:23;;;;;;;3.92;2.60;;;;;;;5.18;66.63;95732.31;4914466;28;20197;-79
2023/11/30 02:49:48;;;;;;;5.60;3.20;;;;;;;5.21;66.45;95731.06;4911901;28;20648;-79
2023/11/30 02:52:13;;;;;;;4.07;2.65;;;;;;;5.21;66.34;95729.25;4920017;28;20710;-79
2023/11/30 02:54:39;;;;;;;4.35;2.97;;;;;;;5.18;66.53;95718.63;4927948;28;20640;-79
2023/11/30 02:57:04;;;;;;;4.00;2.22;;;;;;;5.18;66.49;95713.47;4925543;28;20197;-80
2023/11/30 02:59:31;;;;;;;4.30;3.08;;;;;;;5.21;66.59;95715.56;4908551;28;20111;-80
2023/11/30 03:01:56;;;;;;;3.55;2.80;;;;;;;5.19;66.72;95710.66;4930429;28;20327;-80
2023/11/30 03:04:21;;;;;;;5.07;3.50;;;;;;;5.21;66.35;95713.00;4942690;28;20364;-80
2023/11/30 03:06:49;;;;;;;4.75;2.95;;;;;;;5.22;66.05;95704.22;4940374;28;20142;-80
2023/11/30 03:09:14;;;;;;;4.60;2.58;;;;;;;5.19;66.60;95696.97;4904148;28;20266;-80
2023/11/30 03:11:39;;;;;;;3.67;2.67;;;;;;;5.18;66.54;95695.41;4927515;28;20177;-79
2023/11/30 03:14:05;;;;;;;3.85;2.72;;;;;;;5.22;66.37;95704.22;4926626;28;20278;-80
2023/11/30 03:16:30;;;;;;;3.95;2.75;;;;;;;5.17;66.37;95699.00;4944034;28;20698;-80
2023/11/30 03:18:56;;;;;;;3.47;2.50;;;;;;;5.18;66.69;95692.84;4928443;28;20621;-79
2023/11/30 03:21:22;;;;;;;4.13;2.67;;;;;;;5.20;67.00;95688.97;4942997;28;20169;-80
2023/11/30 03:23:49;;;;;;;4.03;2.40;;;;;;;5.18;66.32;95680.72;4928178;28;20573;-79
2023/11/30 03:26:16;;;;;;;3.65;2.40;;;;;;;5.13;66.28;95688.41;4921853;28;20236;-80
2023/11/30 03:28:41;;;;;;;4.47;2.70;;;;;;;5.17;66.23;95683.53;4931793;28;20220;-79
2023/11/30 03:31:07;;;;;;;5.78;2.92;;;;;;;5.15;66.35;95683.78;4925193;28;20180;-79
2023/11/30 03:33:32;;;;;;;4.55;2.70;;;;;;;5.13;65.97;95675.50;4905745;28;20653;-79
2023/11/30 03:35:57;;;;;;;4.07;2.85;;;;;;;5.12;65.80;95673.16;4933094;28;20679;-79
2023/11/30 03:38:23;;;;;;;3.00;2.22;;;;;;;5.13;66.23;95677.31;4941451;28;20153;-79
2023/11/30 03:40:48;;;;;;;2.75;2.17;;;;;;;5.13;65.82;95679.91;4927281;28;20231;-79
2023/11/30 03:43:13;;;;;;;3.25;2.28;;;;;;;5.08;65.79;95678.03;4913860;28;20181;-79
2023/11/30 03:45:39;;;;;;;4.50;2.20;;;;;;;5.04;65.59;95677.00;4900391;28;20278;-79
2023/11/30 03:48:04;;;;;;;4.38;2.67;;;;;;;5.04;65.11;95675.19;4913883;28;20302;-78
2023/11/30 03:50:29;;;;;;;3.97;2.33;;;;;;;4.98;65.72;95671.00;4926240;28;20584;-78
2023/11/30 03:52:55;;;;;;;4.20;2.97;;;;;;;5.00;65.56;95671.56;4926264;28;20769;-78
2023/11/30 03:55:20;;;;;;;3.67;2.60;;;;;;;4.91;65.35;95672.22;4945314;28;20700;-78
2023/11/30 03:57:46;;;;;;;4.03;2.70;;;;;;;4.80;66.34;95672.13;4908920;28;20283;-78
2023/11/30 04:00:16;;;;;;;4.15;2.80;;;;;;;4.86;65.70;95683.28;4926768;28;20211;-79
2023/11/30 04:02:42;;;;;;;5.22;3.58;;;;;;;4.77;65.79;95671.84;4940536;28;20448;-79
2023/11/30 04:05:07;;;;;;;5.07;2.65;;;;;;;4.77;65.60;95672.63;4904773;28;20342;-78
2023/11/30 04:07:33;;;;;;;5.80;3.10;;;;;;;4.75;65.49;95672.09;4923595;28;20211;-78
2023/11/30 04:09:58;;;;;;;4.35;2.97;;;;;;;4.68;65.70;95661.97;4923576;28;20342;-78
2023/11/30 04:12:24;;;;;;;3.83;2.72;;;;;;;4.67;65.50;95652.66;4926377;28;20355;-78
2023/11/30 04:14:50;;;;;;;3.83;2.65;;;;;;;4.66;65.39;95648.56;4920589;28;20616;-78
2023/11/30 04:17:18;;;;;;;4.38;2.97;;;;;;;4.62;65.55;95642.31;4924138;28;20541;-78
2023/11/30 04:19:43;;;;;;;4.70;3.03;;;;;;;4.59;65.84;95640.25;4920347;28;20291;-78
2023/11/30 04:22:11;;;;;;;5.05;3.05;;;;;;;4.58;65.76;95643.84;4909463;28;20763;-78
2023/11/30 04:24:40;;;;;;;4.18;2.60;;;;;;;4.54;65.20;95650.50;4927630;28;20418;-78
2023/11/30 04:27:05;;;;;;;3.95;2.67;;;;;;;4.49;65.95;95642.72;4930655;28;20201;-78
2023/11/30 04:29:33;;;;;;;4.03;2.60;;;;;;;4.57;65.51;95639.69;4940990;28;20282;-77
2023/11/30 04:31:59;;;;;;;4.22;2.50;;;;;;;4.49;65.71;95635.75;4931289;28;20173;-78
2023/11/30 04:34:25;;;;;;;3.60;2.10;;;;;;;4.52;65.41;95638.88;4905702;28;20196;-78
2023/11/30 04:36:50;;;;;;;4.00;2.40;;;;;;;4.49;65.42;95632.41;4922904;28;20298;-78
2023/11/30 04:39:15;;;;;;;4.30;2.55;;;;;;;4.47;65.31;95626.72;4926405;28;20273;-78
2023/11/30 04:41:41;;;;;;;3.70;2.50;;;;;;;4.48;65.45;95634.19;4924973;28;20195;-78
2023/11/30 04:44:06;;;;;;;3.88;2.55;;;;;;;4.45;65.56;95639.84;4924205;28;20196;-78
2023/11/30 04:46:31;;;;;;;4.10;3.05;;;;;;;4.44;65.08;95653.00;4923937;28;20278;-78
2023/11/30 04:48:58;;;;;;;4.82;2.67;;;;;;;4.43;64.52;95662.50;4917062;28;20187;-78
2023/11/30 04:51:24;;;;;;;5.68;3.30;;;;;;;4.29;65.17;95662.09;4915637;28;20661;-78
2023/11/30 04:53:49;;;;;;;3.92;2.80;;;;;;;4.25;65.88;95653.31;4926799;28;20160;-78
2023/11/30 04:56:15;;;;;;;3.15;2.05;;;;;;;4.28;65.64;95655.41;4933898;28;20137;-78
2023/11/30 04:58:40;;;;;;;5.22;3.15;;;;;;;4.35;65.35;95655.19;4924280;28;20722;-78
2023/11/30 05:01:06;;;;;;;5.10;2.83;;;;;;;4.32;65.14;95650.53;4925400;28;20284;-79
2023/11/30 05:03:31;;;;;;;3.63;2.67;;;;;;;4.27;64.92;95659.00;4933986;28;20639;-78
2023/11/30 05:05:57;;;;;;;5.18;2.58;;;;;;;4.24;65.08;95654.31;4903432;28;20722;-78
2023/11/30 05:08:22;;;;;;;4.13;2.47;;;;;;;4.20;65.30;95658.41;4925255;28;20192;-78
2023/11/30 05:10:48;;;;;;;5.15;2.47;;;;;;;4.22;64.98;95664.09;4910278;28;20254;-78
2023/11/30 05:13:13;;;;;;;3.92;2.65;;;;;;;4.20;65.13;95655.81;4921433;28;20393;-78
2023/11/30 05:15:39;;;;;;;4.80;2.85;;;;;;;4.20;65.40;95653.25;4944128;28;20173;-78
2023/11/30 05:18:05;;;;;;;5.00;2.65;;;;;;;4.20;65.58;95663.56;4929662;28;20208;-78
2023/11/30 05:20:30;;;;;;;4.07;2.58;;;;;;;4.23;65.41;95659.69;4908017;28;20725;-77
2023/11/30 05:22:56;;;;;;;4.20;2.45;;;;;;;4.22;65.70;95643.47;4945592;28;20686;-78
2023/11/30 05:25:21;;;;;;;4.00;2.85;;;;;;;4.27;65.86;95643.53;4927094;28;20187;-78
2023/11/30 05:27:47;;;;;;;3.50;2.35;;;;;;;4.24;65.58;95627.78;4929482;28;20634;-78
2023/11/30 05:30:13;;;;;;;6.88;4.25;;;;;;;4.18;64.96;95629.53;4939193;28;20219;-78
2023/11/30 05:32:38;;;;;;;5.00;3.15;;;;;;;4.16;65.42;95628.97;4928971;28;20526;-77
2023/11/30 05:35:05;;;;;;;4.13;2.65;;;;;;;4.11;64.98;95629.72;4912730;28;20161;-77
2023/11/30 05:37:30;;;;;;;3.75;2.28;;;;;;;4.15;65.35;95624.84;4925897;28;20190;-77
2023/11/30 05:40:02;;;;;;;3.42;1.90;;;;;;;4.05;64.90;95619.59;4912126;28;20640;-77
2023/11/30 05:42:28;;;;;;;4.80;2.72;;;;;;;4.02;65.24;95614.91;4945484;28;20183;-78
2023/11/30 05:44:53;;;;;;;4.13;2.80;;;;;;;4.07;65.33;95615.75;4910531;28;20199;-78
2023/11/30 05:47:21;;;;;;;4.10;2.70;;;;;;;4.03;65.09;95601.03;4927607;28;20960;-78
2023/11/30 05:49:46;;;;;;;5.15;3.28;;;;;;;3.99;65.46;95595.56;4914750;28;20281;-78
2023/11/30 05:52:12;;;;;;;6.70;3.47;;;;;;;3.98;65.30;95601.75;4944627;28;20192;-78
2023/11/30 05:54:38;;;;;;;5.40;3.83;;;;;;;4.04;65.13;95615.44;4941978;28;20189;-78
2023/11/30 05:57:04;;;;;;;5.90;3.50;;;;;;;3.97;65.21;95602.00;4937017;28;20098;-78
2023/11/30 05:59:29;;;;;;;4.43;3.03;;;;;;;3.93;64.60;95599.13;4929717;28;20635;-78
2023/11/30 06:01:54;;;;;;;5.05;2.67;;;;;;;3.86;64.68;95599.28;4940718;28;20199;-78
2023/11/30 06:04:20;;;;;;;3.60;2.80;;;;;;;3.87;64.65;95584.63;4909238;28;20645;-78
2023/11/30 06:06:45;;;;;;;5.05;3.22;;;;;;;3.83;64.65;95586.13;4909058;28;20274;-78
2023/11/30 06:09:10;;;;;;;5.38;2.67;;;;;;;3.84;64.35;95593.63;4921154;28;20770;-78
2023/11/30 06:11:36;;;;;;;5.55;3.53;;;;;;;3.81;64.18;95588.94;4925786;28;20223;-78
2023/11/30 06:14:01;;;;;;;3.65;2.47;;;;;;;3.77;64.82;95580.16;4988409;28;20387;-77
2023/11/30 06:16:27;;;;;;;3.00;2.17;;;;;;;3.80;64.87;95586.59;5022594;28;20030;-77
2023/11/30 06:18:52;;;;;;;4.38;2.85;;;;;;;3.79;64.49;95580.69;4998834;28;20052;-77
2023/11/30 06:21:17;;;;;;;3.45;2.13;;;;;;;3.77;64.16;95576.78;5014992;28;20475;-77
2023/11/30 06:23:43;;;;;;;2.90;2.15;;;;;;;3.74;64.91;95568.53;5017144;28;20064;-77
2023/11/30 06:26:09;;;;;;;2.92;2.10;;;;;;;3.71;65.02;95574.16;4990548;28;20079;-77
2023/11/30 06:28:34;;;;;;;2.97;2.10;;;;;;;3.73;64.91;95577.25;4994696;28;20037;-78
2023/11/30 06:31:00;;;;;;;4.10;2.03;;;;;;;3.79;64.88;95577.31;4982243;28;20041;-78
2023/11/30 06:33:25;;;;;;;3.10;2.10;;;;;;;3.71;65.31;95568.22;4998894;28;20037;-79
2023/11/30 06:35:50;;;;;;;5.03;2.30;;;;;;;3.75;65.04;95569.28;5016859;28;20033;-79
2023/11/30 06:38:16;;;;;;;3.05;2.17;;;;;;;3.75;64.88;95571.88;5020521;28;20041;-78
2023/11/30 06:40:41;;;;;;;5.07;2.88;;;;;;;3.77;64.61;95580.16;5027822;28;20517;-78
2023/11/30 06:43:06;;;;;;;5.03;3.13;;;;;;;3.77;64.83;95566.47;5010595;28;20034;-79
2023/11/30 06:45:32;;;;;;;5.35;3.38;;;;;;;3.74;65.27;95558.22;5027962;28;20143;-79
2023/11/30 06:47:57;;;;;;;4.90;3.40;;;;;;;3.79;64.84;95565.25;5011613;28;20487;-79
2023/11/30 06:50:23;;;;;;;6.00;4.22;;;;;;;3.76;65.11;95565.72;5027311;28;20503;-79
2023/11/30 06:52:48;;;;;;;5.88;4.07;;;;;;;3.73;64.96;95566.97;4991986;28;20038;-79
2023/11/30 06:55:13;;;;;;;7.18;5.47;;;;;;;3.72;65.07;95575.72;5009547;28;20021;-79
2023/11/30 06:57:40;;;;;;;6.93;5.55;;;;;;;3.75;65.28;95564.16;5026839;28;20112;-79
2023/11/30 07:00:10;;;;;;;6.45;4.93;;;;;;;3.77;64.94;95580.16;5028850;28;20438;-79
2023/11/30 07:02:36;;;;;;;8.82;5.88;;;;;;;3.73;64.38;95572.09;5012798;28;20075;-79
2023/11/30 07:05:04;;;;;;;7.65;5.47;;;;;;;3.66;64.84;95565.59;5011854;28;20429;-79
2023/11/30 07:07:29;;;;;;;8.27;6.35;;;;;;;3.67;65.30;95565.34;5029383;28;20037;-79
2023/11/30 07:09:54;;;;;;;6.00;4.75;;;;;;;3.66;64.45;95568.16;4995747;28;20253;-78
2023/11/30 07:12:20;;;;;;;7.45;5.45;;;;;;;3.64;64.67;95567.63;5027865;28;20048;-78
2023/11/30 07:14:47;;;;;;;8.82;6.03;;;;;;;3.63;64.53;95576.38;5027930;28;20028;-78
2023/11/30 07:17:13;;;;;;;7.18;5.35;;;;;;;3.60;64.25;95581.97;5028011;28;20124;-78
2023/11/30 07:19:39;;;;;;;9.18;6.38;;;;;;;3.61;64.60;95573.25;4988748;28;20041;-78
2023/11/30 07:22:04;;;;;;;10.65;7.13;;;;;;;3.64;64.34;95572.78;5011055;28;20029;-78
2023/11/30 07:24:30;;;;;;;10.55;6.32;;;;;;;3.68;64.57;95572.03;5011825;28;20051;-78
2023/11/30 07:26:55;;;;;;;7.05;5.38;;;;;;;3.62;64.49;95559.38;5031875;28;20119;-77
2023/11/30 07:29:21;;;;;;;6.40;4.78;;;;;;;3.66;64.58;95565.59;5027643;28;20068;-77
2023/11/30 07:31:50;;;;;;;8.32;5.82;;;;;;;3.75;64.23;95584.75;5027732;28;20052;-78
2023/11/30 07:34:15;;;;;;;8.50;6.60;;;;;;;3.68;64.24;95573.84;5027513;28;20510;-78
2023/11/30 07:36:40;;;;;;;9.05;6.72;;;;;;;3.59;64.41;95575.28;5010973;28;20033;-78
2023/11/30 07:39:06;;;;;;;7.25;5.40;;;;;;;3.59;64.66;95565.00;5007312;28;20126;-78
2023/11/30 07:41:31;;;;;;;12.70;6.55;;;;;;;3.59;65.04;95554.72;4998357;28;20061;-78
2023/11/30 07:43:56;;;;;;;10.65;7.35;;;;;;;3.51;65.60;95550.75;5007959;28;20061;-78
2023/11/30 07:46:22;;;;;;;11.77;8.05;;;;;;;3.58;65.23;95568.59;5027759;28;20033;-78
2023/11/30 07:48:47;;;;;;;10.05;8.00;;;;;;;3.65;64.98;95569.19;5027818;28;20501;-78
2023/11/30 07:51:12;;;;;;;11.65;8.40;;;;;;;3.67;65.28;95562.78;5010345;28;20670;-78
2023/11/30 07:53:38;;;;;;;12.57;8.82;;;;;;;3.72;64.88;95554.34;5007636;28;20030;-78
2023/11/30 07:56:03;;;;;;;28.02;13.32;;;;;;;3.74;65.01;95560.81;5027442;28;20037;-78
2023/11/30 07:58:29;;;;;;;23.55;11.00;;;;;;;3.78;64.53;95565.47;5028168;28;20499;-78
2023/11/30 08:00:56;;;;;;;20.13;10.52;;;;;;;3.71;65.39;95557.94;5026912;28;20033;-78
2023/11/30 08:03:22;;;;;;;24.38;11.65;;;;;;;3.70;65.57;95546.06;5010821;28;20056;-78
2023/11/30 08:05:47;;;;;;;25.77;12.43;;;;;;;3.72;65.57;95546.63;5007799;28;20077;-78
2023/11/30 08:08:13;;;;;;;18.50;10.13;;;;;;;3.83;65.01;95552.66;5017102;28;20041;-78
2023/11/30 08:10:45;;;;;;;19.98;10.45;;;;;;;3.90;65.06;95553.25;5059640;27;20829;-79
2023/11/30 08:13:12;;;;;;;16.45;9.73;;;;;;;3.90;65.35;95555.81;5043289;28;20064;-79
2023/11/30 08:15:38;;;;;;;17.95;10.50;;;;;;;3.92;65.50;95557.16;5027679;28;20103;-79
2023/11/30 08:18:03;;;;;;;24.73;15.48;;;;;;;3.93;65.05;95556.13;5043783;28;20056;-79
2023/11/30 08:20:29;;;;;;;24.52;14.75;;;;;;;3.99;65.36;95558.75;5026909;28;20029;-79
2023/11/30 08:22:55;;;;;;;22.38;14.18;;;;;;;3.98;65.19;95552.06;5010778;28;20033;-79
2023/11/30 08:25:20;;;;;;;17.25;11.35;;;;;;;3.98;65.78;95552.06;5027123;28;20526;-79
2023/11/30 08:27:45;;;;;;;17.88;10.70;;;;;;;4.03;65.16;95544.38;5027627;28;20470;-79
2023/11/30 08:30:11;;;;;;;15.98;10.07;;;;;;;4.04;65.62;95545.91;5026370;28;20500;-79
2023/11/30 08:32:37;;;;;;;12.10;7.82;;;;;;;4.03;65.69;95547.72;5028744;28;20037;-79
2023/11/30 08:35:03;;;;;;;12.13;8.88;;;;;;;4.04;65.29;95545.91;5026520;28;20048;-79
2023/11/30 08:37:29;;;;;;;10.88;7.47;;;;;;;4.09;65.91;95553.69;5043514;28;20401;-79
2023/11/30 08:39:54;;;;;;;9.00;7.15;;;;;;;4.19;65.63;95560.75;5043514;28;20029;-80
2023/11/30 08:42:21;;;;;;;12.73;8.40;;;;;;;4.15;65.98;95550.16;5026217;28;20075;-81
2023/11/30 08:44:47;;;;;;;12.82;8.63;;;;;;;4.23;65.54;95551.50;5010498;28;20129;-80
2023/11/30 08:47:13;;;;;;;10.52;7.88;;;;;;;4.37;65.38;95555.25;5026274;28;20112;-81
2023/11/30 08:49:38;;;;;;;8.32;5.82;;;;;;;4.43;65.27;95566.38;5027427;28;20108;-81
2023/11/30 08:52:04;;;;;;;5.70;3.75;;;;;;;4.44;65.58;95563.56;5023365;28;20410;-81
2023/11/30 08:54:29;;;;;;;6.15;3.13;;;;;;;4.44;65.73;95560.22;5007034;28;20042;-81
2023/11/30 08:56:55;;;;;;;5.38;3.72;;;;;;;4.48;65.54;95562.03;5022241;28;20404;-81
2023/11/30 08:59:21;;;;;;;7.60;5.07;;;;;;;4.56;65.86;95557.44;5026722;28;20041;-81
2023/11/30 09:01:46;;;;;;;10.27;6.10;;;;;;;4.59;65.89;95556.97;5043193;28;20056;-81
2023/11/30 09:04:13;;;;;;;11.02;6.35;;;;;;;4.62;65.54;95553.91;5042607;28;20041;-81
2023/11/30 09:06:39;;;;;;;11.98;6.65;;;;;;;4.62;66.19;95546.94;5026642;28;20494;-81
2023/11/30 09:09:04;;;;;;;9.30;5.45;;;;;;;4.62;65.83;95551.31;5026146;28;20155;-81
2023/11/30 09:11:30;;;;;;;9.45;6.00;;;;;;;4.64;65.79;95537.19;5005882;28;20079;-81
2023/11/30 09:13:55;;;;;;;10.95;5.80;;;;;;;4.75;65.90;95545.00;5007102;28;20390;-81
2023/11/30 09:16:21;;;;;;;9.73;6.32;;;;;;;4.70;66.40;95538.00;5009597;28;20071;-82
2023/11/30 09:18:47;;;;;;;9.27;6.47;;;;;;;4.71;66.17;95531.03;5041325;28;20539;-81
2023/11/30 09:21:12;;;;;;;9.48;6.55;;;;;;;4.76;65.97;95531.06;5016075;28;20038;-81
2023/11/30 09:23:37;;;;;;;10.10;7.32;;;;;;;4.82;66.01;95527.50;5012907;28;20477;-82
2023/11/30 09:26:07;;;;;;;9.57;6.70;;;;;;;4.94;66.24;95528.09;4996020;28;20401;-81
2023/11/30 09:28:32;;;;;;;9.18;6.40;;;;;;;5.00;65.72;95542.59;5029801;28;20728;-81
2023/11/30 09:31:02;;;;;;;14.70;9.27;;;;;;;5.05;65.93;95545.19;5028820;28;20046;-81
2023/11/30 09:33:28;;;;;;;13.15;9.70;;;;;;;5.07;65.72;95556.03;5005584;28;20063;-82
2023/11/30 09:35:54;;;;;;;10.50;7.55;;;;;;;4.98;65.67;95542.03;5012592;28;20041;-81
2023/11/30 09:38:19;;;;;;;9.10;5.63;;;;;;;5.13;65.66;95550.91;4996247;28;20041;-81
2023/11/30 09:40:45;;;;;;;5.60;4.22;;;;;;;5.18;65.50;95548.34;5012443;28;20104;-81
2023/11/30 09:43:15;;;;;;;12.38;8.45;;;;;;;5.15;65.81;95541.88;5012498;28;20041;-81
2023/11/30 09:45:41;;;;;;;9.00;6.95;;;;;;;5.15;65.89;95543.69;5002108;28;20049;-81
2023/11/30 09:48:06;;;;;;;7.97;5.72;;;;;;;5.18;66.01;95548.34;5026263;28;20041;-82
2023/11/30 09:50:32;;;;;;;6.63;4.78;;;;;;;5.22;65.64;95546.81;5028796;28;20033;-80
2023/11/30 09:52:57;;;;;;;7.43;4.50;;;;;;;5.24;65.78;95547.34;4995783;28;20072;-79
2023/11/30 09:55:25;;;;;;;6.07;4.50;;;;;;;5.31;65.62;95537.56;5030064;28;20065;-80
2023/11/30 09:57:50;;;;;;;5.38;4.20;;;;;;;5.36;65.65;95540.16;5028908;28;20052;-80
2023/11/30 10:00:16;;;;;;;6.00;4.00;;;;;;;5.33;65.21;95532.94;5012299;28;20700;-80
2023/11/30 10:02:54;;;;;;;6.07;4.82;;;;;;;5.42;65.71;95541.75;5027952;28;20053;-79
2023/11/30 10:05:20;;;;;;;5.18;4.03;;;;;;;5.37;65.29;95540.97;4995658;28;20125;-79
2023/11/30 10:07:45;;;;;;;6.60;4.65;;;;;;;5.36;65.80;95521.34;5028970;28;20076;-80
2023/11/30 10:10:11;;;;;;;7.40;5.28;;;;;;;5.41;65.71;95524.72;5028117;28;20041;-80
2023/11/30 10:12:36;;;;;;;6.28;4.80;;;;;;;5.43;65.11;95522.69;5011779;28;20168;-80
2023/11/30 10:15:02;;;;;;;8.15;4.75;;;;;;;5.46;65.42;95526.53;5011819;28;20482;-80
2023/11/30 10:17:27;;;;;;;6.75;4.35;;;;;;;5.48;65.23;95529.63;4995583;28;20029;-80
2023/11/30 10:19:54;;;;;;;6.68;4.20;;;;;;;5.54;65.66;95522.72;5008817;28;20123;-80
2023/11/30 10:22:22;;;;;;;4.72;3.55;;;;;;;5.56;65.32;95524.00;5027529;28;21375;-80
2023/11/30 10:24:48;;;;;;;5.65;3.65;;;;;;;5.55;65.30;95521.66;5012433;28;20033;-80
2023/11/30 10:27:17;;;;;;;8.23;5.10;;;;;;;5.61;65.56;95518.09;4995163;28;20041;-80
2023/11/30 10:29:44;;;;;;;8.10;5.10;;;;;;;5.61;65.42;95513.69;4995569;28;20371;-80
2023/11/30 10:32:11;;;;;;;8.25;4.38;;;;;;;5.75;65.71;95526.13;5008968;28;20042;-80
2023/11/30 10:34:46;;;;;;;6.47;4.00;;;;;;;5.86;65.88;95524.34;4996046;28;20040;-81
2023/11/30 10:37:15;;;;;;;5.50;3.53;;;;;;;5.88;65.38;95522.28;5011685;28;20033;-80
2023/11/30 10:39:42;;;;;;;3.92;2.70;;;;;;;5.96;65.25;95526.97;5012306;28;20042;-81
2023/11/30 10:42:15;;;;;;;3.38;2.22;;;;;;;6.04;65.30;95523.13;5011906;28;20037;-80
2023/11/30 10:44:43;;;;;;;2.80;2.00;;;;;;;6.11;64.79;95524.44;5012100;28;20468;-81
2023/11/30 10:47:11;;;;;;;2.88;2.05;;;;;;;6.09;65.28;95526.50;5028688;28;20048;-80
2023/11/30 10:49:37;;;;;;;5.75;3.30;;;;;;;6.15;65.05;95524.69;5029537;28;20382;-81
2023/11/30 10:52:03;;;;;;;9.90;5.65;;;;;;;6.18;65.09;95524.19;5012134;28;20099;-81
2023/11/30 10:54:51;;;;;;;9.13;5.38;;;;;;;6.40;64.30;95518.00;5029243;28;20045;-82
2023/11/30 10:57:18;;;;;;;9.68;7.45;;;;;;;6.31;65.03;95515.94;5030006;28;20041;-82
2023/11/30 10:59:45;;;;;;;10.55;8.52;;;;;;;6.37;65.16;95511.53;4998016;28;20040;-83
2023/11/30 11:02:11;;;;;;;9.15;7.35;;;;;;;6.49;64.73;95519.03;5011093;28;20040;-83
2023/11/30 11:04:39;;;;;;;4.60;3.63;;;;;;;6.48;64.93;95513.09;4995116;28;20033;-84
2023/11/30 11:07:11;;;;;;;4.05;3.63;;;;;;;6.47;64.67;95503.78;5011028;28;20272;-84
2023/11/30 11:09:41;;;;;;;4.70;3.35;;;;;;;6.49;64.54;95504.28;5010717;28;20030;-84
2023/11/30 11:12:19;;;;;;;8.43;4.28;;;;;;;6.53;64.20;95518.28;5011176;28;20467;-84
2023/11/30 11:14:45;;;;;;;13.85;7.20;;;;;;;6.38;64.97;95511.28;5010810;28;20044;-85
2023/11/30 11:17:10;;;;;;;10.18;5.85;;;;;;;6.40;64.24;95507.66;5010706;28;20037;-86
2023/11/30 11:19:43;;;;;;;4.43;3.03;;;;;;;6.47;64.49;95515.94;4994918;28;20397;-85
2023/11/30 11:22:26;;;;;;;3.65;2.60;;;;;;;6.48;64.00;95502.75;5010556;28;20493;-86
2023/11/30 11:24:59;;;;;;;2.90;2.40;;;;;;;6.52;64.47;95503.00;4995102;28;20028;-86
2023/11/30 11:27:31;;;;;;;3.90;2.25;;;;;;;6.51;64.45;95507.41;5027181;28;20497;-86
2023/11/30 11:29:58;;;;;;;3.90;3.15;;;;;;;6.40;64.71;95492.16;4994576;28;20030;-86
2023/11/30 11:32:24;;;;;;;4.00;2.63;;;;;;;6.40;64.72;95500.69;5010517;28;20099;-86
2023/11/30 11:34:50;;;;;;;3.60;2.70;;;;;;;6.43;65.08;95502.75;4995086;28;20489;-87